createdAt,value
2022-09-28T00:01:42.925Z,0.30
2022-09-28T00:04:45.002Z,0.30
2022-09-28T00:07:47.071Z,0.30
2022-09-28T00:10:56.152Z,0.43
2022-09-28T00:14:03.770Z,0.30
2022-09-28T00:17:05.882Z,0.30
2022-09-28T00:20:08.305Z,0.50
2022-09-28T00:23:10.299Z,0.40
2022-09-28T00:26:12.284Z,0.40
2022-09-28T00:29:27.104Z,0.40
2022-09-28T00:32:30.077Z,0.47
2022-09-28T00:35:32.129Z,0.33
2022-09-28T00:38:35.420Z,0.20
2022-09-28T00:41:37.530Z,0.40
2022-09-28T00:44:54.110Z,0.40
2022-09-28T00:47:58.809Z,0.47
2022-09-28T00:51:06.500Z,0.20
2022-09-28T00:54:09.479Z,0.40
2022-09-28T00:57:11.959Z,0.40
2022-09-28T01:00:14.531Z,0.30
2022-09-28T01:03:17.588Z,0.60
2022-09-28T01:06:27.813Z,0.50
2022-09-28T01:09:31.192Z,0.70
2022-09-28T01:12:33.217Z,0.30
2022-09-28T01:15:43.867Z,0.40
2022-09-28T01:19:05.380Z,0.37
2022-09-28T01:22:08.524Z,0.77
2022-09-28T01:25:40.268Z,0.50
2022-09-28T01:28:44.674Z,0.57
2022-09-28T01:31:53.244Z,0.30
2022-09-28T01:35:09.925Z,0.30
2022-09-28T01:38:30.638Z,0.20
2022-09-28T01:41:36.978Z,0.30
2022-09-28T01:44:42.706Z,0.27
2022-09-28T01:47:47.501Z,0.33
2022-09-28T01:50:56.787Z,0.30
2022-09-28T01:54:07.589Z,0.60
2022-09-28T01:57:15.911Z,0.50
2022-09-28T02:00:20.013Z,0.30
2022-09-28T02:03:35.070Z,0.47
2022-09-28T02:06:46.439Z,0.30
2022-09-28T02:09:58.969Z,0.30
2022-09-28T02:13:14.627Z,0.30
2022-09-28T02:16:37.462Z,0.30
2022-09-28T02:19:41.499Z,0.20
2022-09-28T02:22:55.932Z,0.30
2022-09-28T02:26:06.845Z,0.50
2022-09-28T02:29:09.081Z,0.37
2022-09-28T02:32:11.447Z,0.33
2022-09-28T02:35:17.779Z,0.33
2022-09-28T02:38:19.786Z,0.40
2022-09-28T02:41:55.966Z,0.30
2022-09-28T02:45:48.409Z,0.40
2022-09-28T02:49:20.813Z,0.30
2022-09-28T02:52:43.060Z,0.30
2022-09-28T02:56:30.039Z,0.30
2022-09-28T02:59:40.187Z,0.27
2022-09-28T03:03:06.161Z,0.20
2022-09-28T03:06:20.526Z,0.60
2022-09-28T03:09:34.625Z,0.63
2022-09-28T03:12:38.105Z,0.70
2022-09-28T03:15:46.455Z,0.93
2022-09-28T03:18:50.759Z,0.40
2022-09-28T03:21:53.303Z,0.50
2022-09-28T03:24:55.293Z,0.50
2022-09-28T03:27:57.413Z,0.60
2022-09-28T03:31:00.239Z,0.30
2022-09-28T03:34:02.481Z,0.30
2022-09-28T03:37:04.550Z,0.60
2022-09-28T03:40:07.197Z,0.30
2022-09-28T03:43:10.162Z,0.20
2022-09-28T03:46:12.440Z,0.50
2022-09-28T03:49:19.201Z,0.37
2022-09-28T03:52:21.168Z,0.17
2022-09-28T03:55:23.209Z,0.13
2022-09-28T03:58:28.009Z,0.20
2022-09-28T04:01:30.180Z,0.40
2022-09-28T04:04:33.117Z,0.27
2022-09-28T04:07:35.123Z,0.30
2022-09-28T04:10:37.017Z,0.10
2022-09-28T04:13:39.511Z,0.30
2022-09-28T04:16:44.523Z,0.30
2022-09-28T04:19:49.990Z,0.10
2022-09-28T04:23:01.545Z,0.27
2022-09-28T04:26:05.871Z,0.40
2022-09-28T04:29:16.176Z,0.30
2022-09-28T04:32:28.547Z,0.20
2022-09-28T04:35:30.527Z,0.40
2022-09-28T04:38:51.767Z,0.33
2022-09-28T04:41:56.240Z,0.27
2022-09-28T04:44:59.057Z,0.30
2022-09-28T04:48:01.546Z,0.27
2022-09-28T04:51:25.667Z,0.30
2022-09-28T04:54:27.612Z,0.40
2022-09-28T04:57:29.560Z,2.00
2022-09-28T05:00:35.332Z,0.50
2022-09-28T05:03:59.942Z,0.40
2022-09-28T05:07:11.121Z,0.20
2022-09-28T05:10:13.550Z,0.23
2022-09-28T05:13:18.801Z,0.30
2022-09-28T05:16:21.017Z,0.30
2022-09-28T05:19:45.520Z,0.20
2022-09-28T05:22:48.241Z,0.20
2022-09-28T05:25:51.122Z,0.30
2022-09-28T05:28:59.870Z,0.10
2022-09-28T05:32:20.578Z,0.27
2022-09-28T05:35:47.865Z,0.30
2022-09-28T05:38:51.915Z,0.30
2022-09-28T05:41:55.149Z,0.30
2022-09-28T05:45:00.332Z,0.40
2022-09-28T05:48:02.445Z,0.30
2022-09-28T05:51:04.635Z,0.20
2022-09-28T05:54:06.668Z,0.30
2022-09-28T05:57:12.497Z,0.30
2022-09-28T06:00:14.603Z,0.20
2022-09-28T06:03:22.356Z,0.30
2022-09-28T06:06:24.448Z,0.23
2022-09-28T06:09:26.567Z,0.43
2022-09-28T06:12:54.665Z,0.20
2022-09-28T06:15:56.725Z,0.30
2022-09-28T06:18:58.856Z,0.20
2022-09-28T06:22:16.903Z,0.30
2022-09-28T06:25:30.259Z,0.20
2022-09-28T06:28:32.339Z,0.40
2022-09-28T06:31:34.341Z,0.20
2022-09-28T06:34:36.358Z,0.20
2022-09-28T06:37:38.249Z,0.40
2022-09-28T06:40:40.550Z,0.30
2022-09-28T06:43:42.539Z,0.30
2022-09-28T06:46:47.223Z,0.27
2022-09-28T06:50:12.416Z,0.30
2022-09-28T06:53:40.773Z,0.30
2022-09-28T06:57:06.449Z,0.43
2022-09-28T07:00:09.087Z,0.57
2022-09-28T07:03:14.561Z,0.30
2022-09-28T07:06:48.186Z,0.47
2022-09-28T07:10:11.478Z,0.50
2022-09-28T07:14:01.136Z,0.90
2022-09-28T07:17:12.294Z,1.13
2022-09-28T07:20:19.401Z,0.70
2022-09-28T07:23:23.510Z,0.50
2022-09-28T07:26:51.579Z,0.60
2022-09-28T07:30:08.852Z,0.70
2022-09-28T07:33:51.384Z,0.70
2022-09-28T07:37:05.785Z,0.70
2022-09-28T07:40:27.138Z,0.60
2022-09-28T07:43:29.184Z,0.50
2022-09-28T07:46:33.001Z,0.50
2022-09-28T07:49:40.047Z,0.40
2022-09-28T07:53:08.512Z,0.53
2022-09-28T07:56:31.181Z,0.50
2022-09-28T07:59:53.885Z,0.43
2022-09-28T08:03:04.669Z,0.40
2022-09-28T08:06:11.325Z,0.73
2022-09-28T08:09:13.543Z,1.00
2022-09-28T08:12:33.947Z,1.00
2022-09-28T08:16:08.580Z,0.70
2022-09-28T08:19:19.754Z,1.17
2022-09-28T08:22:22.811Z,0.87
2022-09-28T08:25:27.350Z,0.70
2022-09-28T08:28:29.441Z,0.67
2022-09-28T08:31:36.549Z,0.70
2022-09-28T08:34:46.228Z,0.90
2022-09-28T08:38:07.773Z,0.63
2022-09-28T08:42:01.276Z,0.87
2022-09-28T08:45:36.599Z,0.90
2022-09-28T08:49:13.767Z,1.07
2022-09-28T08:52:51.539Z,0.90
2022-09-28T08:56:25.110Z,0.80
2022-09-28T08:59:37.961Z,0.60
2022-09-28T09:02:42.913Z,0.80
2022-09-28T09:06:27.060Z,1.10
2022-09-28T09:09:57.273Z,0.73
2022-09-28T09:13:21.726Z,0.90
2022-09-28T09:16:39.246Z,1.20
2022-09-28T09:20:05.772Z,1.00
2022-09-28T09:23:37.580Z,0.77
2022-09-28T09:26:41.246Z,0.90
2022-09-28T09:30:01.415Z,0.80
2022-09-28T09:33:23.222Z,0.90
2022-09-28T09:37:05.975Z,0.73
2022-09-28T09:40:37.346Z,0.87
2022-09-28T09:44:04.279Z,0.77
2022-09-28T09:47:50.837Z,0.80
2022-09-28T09:51:04.437Z,0.70
2022-09-28T09:54:24.344Z,0.60
2022-09-28T09:57:40.736Z,0.60
2022-09-28T10:01:09.432Z,0.47
2022-09-28T10:04:39.702Z,0.40
2022-09-28T10:08:09.249Z,0.57
2022-09-28T10:11:22.143Z,0.60
2022-09-28T10:14:28.697Z,0.50
2022-09-28T10:17:37.742Z,0.30
2022-09-28T10:21:03.224Z,0.50
2022-09-28T10:24:36.059Z,0.20
2022-09-28T10:27:45.597Z,0.40
2022-09-28T10:30:48.159Z,0.33
2022-09-28T10:33:53.660Z,0.40
2022-09-28T10:37:03.462Z,0.30
2022-09-28T10:40:43.619Z,0.40
2022-09-28T10:44:06.927Z,0.40
2022-09-28T10:47:21.289Z,0.40
2022-09-28T10:50:26.765Z,0.43
2022-09-28T10:53:40.180Z,0.50
2022-09-28T10:56:42.733Z,0.30
2022-09-28T10:59:51.999Z,0.30
2022-09-28T11:02:54.033Z,0.20
2022-09-28T11:06:03.309Z,0.40
2022-09-28T11:09:27.085Z,0.40
2022-09-28T11:12:44.421Z,0.80
2022-09-28T11:15:47.709Z,0.40
2022-09-28T11:19:20.872Z,0.40
2022-09-28T11:22:30.338Z,0.53
2022-09-28T11:25:37.270Z,0.40
2022-09-28T11:28:42.239Z,0.40
2022-09-28T11:32:01.191Z,0.50
2022-09-28T11:35:03.555Z,0.43
2022-09-28T11:38:18.968Z,0.40
2022-09-28T11:42:03.855Z,0.47
2022-09-28T11:45:25.485Z,0.50
2022-09-28T11:48:41.095Z,0.40
2022-09-28T11:51:46.200Z,0.50
2022-09-28T11:54:59.606Z,0.60
2022-09-28T11:58:22.396Z,0.60
2022-09-28T12:01:36.278Z,1.17
2022-09-28T12:04:57.031Z,0.63
2022-09-28T12:08:28.211Z,0.60
2022-09-28T12:11:47.941Z,0.60
2022-09-28T12:14:55.687Z,0.50
2022-09-28T12:18:06.307Z,0.70
2022-09-28T12:21:14.292Z,0.53
2022-09-28T12:24:25.069Z,0.60
2022-09-28T12:27:43.954Z,0.60
2022-09-28T12:30:49.383Z,0.70
2022-09-28T12:33:52.323Z,0.50
2022-09-28T12:37:08.676Z,0.90
2022-09-28T12:40:37.382Z,0.60
2022-09-28T12:44:07.024Z,0.50
2022-09-28T12:47:46.430Z,0.67
2022-09-28T12:51:25.262Z,0.40
2022-09-28T12:54:50.707Z,0.50
2022-09-28T12:58:15.420Z,0.60
2022-09-28T13:01:29.212Z,0.40
2022-09-28T13:05:13.008Z,0.60
2022-09-28T13:08:34.229Z,0.50
2022-09-28T13:11:48.307Z,0.30
2022-09-28T13:15:26.435Z,0.30
2022-09-28T13:18:43.460Z,0.30
2022-09-28T13:22:01.491Z,0.30
2022-09-28T13:25:11.641Z,0.60
2022-09-28T13:28:15.986Z,0.28
2022-09-28T13:31:22.419Z,0.32
2022-09-28T13:34:36.521Z,0.30
2022-09-28T13:37:38.479Z,0.20
2022-09-28T13:41:04.827Z,0.63
2022-09-28T13:44:22.117Z,0.30
2022-09-28T13:48:03.037Z,0.30
2022-09-28T13:51:27.235Z,0.30
2022-09-28T13:54:41.388Z,0.40
2022-09-28T13:58:06.277Z,0.30
2022-09-28T14:01:13.025Z,0.60
2022-09-28T14:04:21.067Z,0.30
2022-09-28T14:07:35.227Z,0.30
2022-09-28T14:10:56.479Z,0.30
2022-09-28T14:14:02.285Z,0.20
2022-09-28T14:17:19.177Z,0.30
2022-09-28T14:20:25.139Z,0.23
2022-09-28T14:23:36.141Z,0.30
2022-09-28T14:27:09.212Z,0.30
2022-09-28T14:30:13.855Z,0.27
2022-09-28T14:33:22.586Z,0.30
2022-09-28T14:36:54.062Z,0.30
2022-09-28T14:40:14.862Z,0.30
2022-09-28T14:43:34.906Z,0.30
2022-09-28T14:46:39.271Z,0.27
2022-09-28T14:49:45.878Z,0.30
2022-09-28T14:52:52.992Z,0.20
2022-09-28T14:55:58.598Z,0.20
2022-09-28T14:59:01.200Z,0.30
2022-09-28T15:02:15.662Z,0.20
2022-09-28T15:05:24.408Z,0.30
2022-09-28T15:08:37.700Z,0.30
2022-09-28T15:11:40.332Z,0.20
2022-09-28T15:15:04.302Z,0.30
2022-09-28T15:18:19.752Z,0.40
2022-09-28T15:21:22.529Z,0.20
2022-09-28T15:24:35.072Z,0.30
2022-09-28T15:27:38.824Z,0.20
2022-09-28T15:30:40.788Z,0.20
2022-09-28T15:34:00.981Z,0.20
2022-09-28T15:37:09.215Z,0.30
2022-09-28T15:40:17.672Z,0.30
2022-09-28T15:43:29.180Z,0.33
2022-09-28T15:46:39.366Z,0.30
2022-09-28T15:49:58.743Z,0.30
2022-09-28T15:53:05.584Z,0.10
2022-09-28T15:56:10.423Z,0.10
2022-09-28T15:59:15.126Z,0.20
2022-09-28T16:02:20.953Z,0.20
2022-09-28T16:05:37.025Z,0.30
2022-09-28T16:08:40.363Z,0.30
2022-09-28T16:11:42.409Z,0.30
2022-09-28T16:14:52.038Z,0.30
2022-09-28T16:17:56.947Z,0.17
2022-09-28T16:21:25.231Z,0.20
2022-09-28T16:24:31.053Z,0.40
2022-09-28T16:27:44.641Z,0.20
2022-09-28T16:31:12.885Z,0.40
2022-09-28T16:34:20.509Z,0.23
2022-09-28T16:37:34.205Z,0.27
2022-09-28T16:40:40.605Z,0.30
2022-09-28T16:43:42.702Z,0.27
2022-09-28T16:46:45.676Z,0.20
2022-09-28T16:49:48.572Z,0.30
2022-09-28T16:53:19.319Z,0.30
2022-09-28T16:56:21.853Z,0.33
2022-09-28T16:59:23.782Z,0.30
2022-09-28T17:05:48.666Z,0.20
2022-09-28T17:08:50.572Z,0.40
2022-09-28T17:11:57.105Z,0.20
2022-09-28T17:15:00.523Z,0.27
2022-09-28T17:18:02.858Z,0.20
2022-09-28T17:21:07.109Z,0.23
2022-09-28T17:24:09.137Z,0.40
2022-09-28T17:27:16.591Z,0.27
2022-09-28T17:30:22.338Z,0.30
2022-09-28T17:33:29.891Z,0.27
2022-09-28T17:36:31.854Z,0.30
2022-09-28T17:39:33.806Z,0.37
2022-09-28T17:42:35.855Z,0.30
2022-09-28T17:45:41.195Z,0.30
2022-09-28T17:48:46.315Z,0.63
2022-09-28T17:51:50.292Z,0.37
2022-09-28T17:54:52.260Z,0.40
2022-09-28T17:57:54.987Z,0.50
2022-09-28T18:00:57.227Z,0.40
2022-09-28T18:04:04.147Z,0.30
2022-09-28T18:07:06.196Z,0.40
2022-09-28T18:10:12.580Z,0.40
2022-09-28T18:13:15.151Z,0.60
2022-09-28T18:16:19.792Z,0.53
2022-09-28T18:19:21.828Z,0.40
2022-09-28T18:22:23.852Z,0.50
2022-09-28T18:25:25.865Z,0.50
2022-09-28T18:28:27.887Z,0.50
2022-09-28T18:31:30.007Z,0.50
2022-09-28T18:34:35.785Z,0.50
2022-09-28T18:37:40.070Z,0.40
2022-09-28T18:40:42.315Z,0.50
2022-09-28T18:43:50.719Z,0.47
2022-09-28T18:46:52.864Z,0.47
2022-09-28T18:49:55.055Z,0.30
2022-09-28T18:53:11.536Z,0.60
2022-09-28T18:56:18.457Z,0.80
2022-09-28T18:59:20.594Z,0.30
2022-09-28T19:02:22.740Z,0.30
2022-09-28T19:05:24.880Z,0.30
2022-09-28T19:08:27.847Z,0.63
2022-09-28T19:11:30.018Z,0.33
2022-09-28T19:14:31.900Z,0.67
2022-09-28T19:17:33.899Z,0.60
2022-09-28T19:20:36.061Z,0.53
2022-09-28T19:23:39.306Z,0.40
2022-09-28T19:26:42.118Z,0.40
2022-09-28T19:29:44.199Z,0.50
2022-09-28T19:32:46.184Z,0.40
2022-09-28T19:35:58.857Z,0.53
2022-09-28T19:39:04.591Z,0.50
2022-09-28T19:42:06.829Z,0.70
2022-09-28T19:45:09.283Z,0.80
2022-09-28T19:48:11.318Z,0.80
2022-09-28T19:51:13.323Z,1.10
2022-09-28T19:54:15.920Z,0.63
2022-09-28T19:57:19.700Z,0.70
2022-09-28T20:00:22.406Z,0.60
2022-09-28T20:03:26.084Z,0.30
2022-09-28T20:06:28.859Z,0.47
2022-09-28T20:09:32.443Z,0.50
2022-09-28T20:12:34.795Z,0.47
2022-09-28T20:15:36.966Z,0.40
2022-09-28T20:18:40.441Z,0.40
2022-09-28T20:21:42.380Z,0.30
2022-09-28T20:24:44.367Z,0.30
2022-09-28T20:27:46.309Z,0.30
2022-09-28T20:30:48.331Z,0.40
2022-09-28T20:33:51.458Z,0.30
2022-09-28T20:36:53.430Z,0.33
2022-09-28T20:39:55.455Z,0.33
2022-09-28T20:42:57.530Z,0.40
2022-09-28T20:45:59.482Z,0.50
2022-09-28T20:49:01.699Z,0.30
2022-09-28T20:52:03.921Z,0.30
2022-09-28T20:55:06.298Z,0.37
2022-09-28T20:58:08.252Z,0.33
2022-09-28T21:01:17.357Z,0.50
2022-09-28T21:04:19.831Z,0.30
2022-09-28T21:07:21.996Z,0.30
2022-09-28T21:10:24.015Z,0.30
2022-09-28T21:13:26.915Z,0.50
2022-09-28T21:16:32.403Z,0.30
2022-09-28T21:19:34.336Z,0.27
2022-09-28T21:22:36.307Z,0.40
2022-09-28T21:25:38.269Z,0.70
2022-09-28T21:28:40.808Z,0.30
2022-09-28T21:31:46.844Z,0.30
2022-09-28T21:34:50.577Z,0.20
2022-09-28T21:37:52.592Z,0.30
2022-09-28T21:40:57.054Z,0.30
2022-09-28T21:43:59.106Z,0.20
2022-09-28T21:47:01.078Z,0.40
2022-09-28T21:50:03.387Z,0.30
2022-09-28T21:53:05.364Z,0.30
2022-09-28T21:56:10.189Z,0.60
2022-09-28T21:59:12.131Z,0.40
2022-09-28T22:02:14.162Z,0.30
2022-09-28T22:05:16.181Z,0.47
2022-09-28T22:08:19.112Z,0.60
2022-09-28T22:11:23.921Z,0.40
2022-09-28T22:14:27.452Z,0.50
2022-09-28T22:17:29.527Z,0.60
2022-09-28T22:20:31.557Z,0.40
2022-09-28T22:23:34.031Z,0.40
2022-09-28T22:26:37.446Z,0.67
2022-09-28T22:29:39.393Z,0.60
2022-09-28T22:32:41.288Z,0.50
2022-09-28T22:35:43.232Z,0.77
2022-09-28T22:38:45.967Z,0.60
2022-09-28T22:41:48.424Z,0.60
2022-09-28T22:44:50.442Z,0.60
2022-09-28T22:47:52.488Z,0.50
2022-09-28T22:50:54.394Z,0.40
2022-09-28T22:53:57.055Z,0.60
2022-09-28T22:56:59.064Z,0.47
2022-09-28T23:00:01.344Z,0.40
2022-09-28T23:03:03.430Z,0.50
2022-09-28T23:06:05.640Z,0.50
2022-09-28T23:09:07.594Z,0.57
2022-09-28T23:12:09.523Z,0.60
2022-09-28T23:15:11.565Z,0.60
2022-09-28T23:18:13.576Z,0.63
2022-09-28T23:21:18.342Z,0.50
2022-09-28T23:24:20.309Z,0.87
2022-09-28T23:27:22.282Z,0.67
2022-09-28T23:30:24.957Z,0.70
2022-09-28T23:33:26.927Z,0.80
2022-09-28T23:36:29.610Z,0.80
2022-09-28T23:39:31.626Z,0.73
2022-09-28T23:42:35.083Z,0.70
2022-09-28T23:45:37.104Z,1.30
2022-09-28T23:48:39.042Z,0.90
2022-09-28T23:51:41.002Z,0.57
2022-09-28T23:54:42.976Z,0.80
2022-09-28T23:57:45.818Z,0.70
